createdAt,value
2022-12-01T00:01:00.765Z,28.65
2022-12-01T00:03:27.098Z,28.60
2022-12-01T00:06:01.203Z,28.95
2022-12-01T00:08:28.234Z,27.83
2022-12-01T00:10:56.234Z,30.98
2022-12-01T00:13:22.495Z,28.00
2022-12-01T00:15:48.638Z,30.00
2022-12-01T00:18:14.767Z,30.85
2022-12-01T00:20:40.867Z,29.70
2022-12-01T00:23:06.992Z,30.90
2022-12-01T00:25:33.113Z,30.55
2022-12-01T00:57:31.036Z,28.08
2022-12-01T00:59:57.140Z,29.02
2022-12-01T01:02:23.423Z,30.73
2022-12-01T01:04:49.579Z,30.48
2022-12-01T01:07:15.765Z,30.88
2022-12-01T01:09:41.876Z,32.30
2022-12-01T01:12:08.031Z,31.10
2022-12-01T01:14:34.146Z,31.60
2022-12-01T01:17:00.366Z,31.88
2022-12-01T01:19:26.532Z,31.33
2022-12-01T01:21:52.648Z,32.35
2022-12-01T01:24:18.796Z,30.45
2022-12-01T01:26:44.944Z,32.35
2022-12-01T01:29:11.145Z,29.58
2022-12-01T01:31:37.972Z,33.22
2022-12-01T01:34:04.462Z,31.95
2022-12-01T01:36:30.984Z,34.28
2022-12-01T01:38:57.093Z,34.08
2022-12-01T01:41:23.624Z,32.65
2022-12-01T01:43:50.996Z,34.25
2022-12-01T01:46:32.317Z,33.05
2022-12-01T01:49:04.992Z,34.30
2022-12-01T01:51:41.886Z,31.13
2022-12-01T01:54:15.742Z,32.75
2022-12-01T01:56:44.488Z,32.20
2022-12-01T01:59:14.945Z,33.03
2022-12-01T02:01:41.122Z,34.25
2022-12-01T02:04:07.508Z,35.60
2022-12-01T02:06:35.066Z,32.90
2022-12-01T02:09:01.168Z,34.30
2022-12-01T02:11:49.024Z,32.88
2022-12-01T02:14:25.151Z,33.03
2022-12-01T02:16:58.227Z,35.30
2022-12-01T02:19:44.772Z,34.75
2022-12-01T02:22:40.651Z,35.88
2022-12-01T02:25:26.714Z,35.30
2022-12-01T02:27:55.844Z,34.40
2022-12-01T02:30:42.599Z,35.63
2022-12-01T02:33:32.445Z,34.53
2022-12-01T02:36:19.261Z,34.90
2022-12-01T02:38:54.405Z,36.55
2022-12-01T02:41:29.699Z,37.33
2022-12-01T02:44:10.094Z,34.85
2022-12-01T02:46:41.936Z,36.72
2022-12-01T02:49:13.955Z,37.00
2022-12-01T02:51:44.780Z,34.55
2022-12-01T02:54:13.509Z,34.95
2022-12-01T02:56:39.642Z,33.72
2022-12-01T02:59:15.452Z,32.05
2022-12-01T03:02:03.613Z,33.33
2022-12-01T03:05:02.663Z,33.47
2022-12-01T03:08:01.769Z,33.10
2022-12-01T03:10:48.096Z,33.13
2022-12-01T03:13:33.891Z,34.03
2022-12-01T03:16:35.462Z,36.50
2022-12-01T03:19:16.551Z,34.40
2022-12-01T03:21:50.415Z,35.67
2022-12-01T03:24:23.885Z,34.38
2022-12-01T03:26:57.133Z,37.65
2022-12-01T03:29:31.754Z,36.15
2022-12-01T03:32:09.783Z,34.27
2022-12-01T03:34:46.521Z,34.17
2022-12-01T03:37:36.643Z,34.95
2022-12-01T03:40:06.756Z,37.90
2022-12-01T03:42:37.682Z,36.20
2022-12-01T03:45:10.529Z,34.83
2022-12-01T03:47:39.545Z,34.25
2022-12-01T03:50:08.481Z,34.80
2022-12-01T03:53:02.210Z,33.63
2022-12-01T03:55:31.510Z,33.65
2022-12-01T03:58:05.780Z,33.88
2022-12-01T04:00:32.375Z,34.72
2022-12-01T04:03:03.283Z,34.85
2022-12-01T04:05:30.821Z,33.63
2022-12-01T04:07:57.040Z,32.60
2022-12-01T04:10:23.349Z,35.55
2022-12-01T04:12:49.518Z,34.72
2022-12-01T04:15:16.819Z,35.03
2022-12-01T04:17:44.600Z,35.90
2022-12-01T04:20:13.284Z,35.20
2022-12-01T04:22:39.567Z,34.28
2022-12-01T04:25:07.134Z,35.63
2022-12-01T04:27:34.092Z,38.08
2022-12-01T04:30:00.198Z,37.25
2022-12-01T04:32:26.717Z,41.42
2022-12-01T04:34:53.098Z,39.78
2022-12-01T04:37:20.155Z,41.08
2022-12-01T04:39:46.502Z,38.17
2022-12-01T04:42:12.970Z,40.03
2022-12-01T04:44:39.075Z,38.03
2022-12-01T04:47:06.126Z,41.15
2022-12-01T04:49:33.390Z,41.15
2022-12-01T04:51:59.518Z,40.50
2022-12-01T04:54:25.844Z,41.05
2022-12-01T04:56:51.977Z,41.67
2022-12-01T04:59:18.126Z,41.63
2022-12-01T05:01:44.858Z,42.53
2022-12-01T05:04:13.453Z,41.05
2022-12-01T05:06:40.194Z,44.50
2022-12-01T05:09:06.892Z,42.17
2022-12-01T05:11:33.674Z,42.15
2022-12-01T05:14:00.385Z,41.97
2022-12-01T05:16:28.955Z,43.08
2022-12-01T05:19:16.575Z,40.55
2022-12-01T05:21:44.188Z,42.35
2022-12-01T05:24:11.398Z,41.58
2022-12-01T05:26:37.831Z,44.95
2022-12-01T05:29:04.178Z,44.05
2022-12-01T05:31:30.908Z,45.22
2022-12-01T05:33:57.093Z,47.38
2022-12-01T05:36:23.937Z,48.03
2022-12-01T05:38:50.070Z,45.42
2022-12-01T05:41:16.321Z,46.85
2022-12-01T05:43:42.626Z,45.58
2022-12-01T05:46:08.914Z,46.38
2022-12-01T05:48:35.229Z,48.15
2022-12-01T05:51:11.120Z,47.70
2022-12-01T05:53:37.333Z,45.60
2022-12-01T05:56:03.665Z,45.55
2022-12-01T05:58:29.843Z,49.55
2022-12-01T06:00:56.016Z,50.75
2022-12-01T06:03:22.141Z,49.78
2022-12-01T06:05:48.262Z,46.10
2022-12-01T06:08:14.488Z,46.72
2022-12-01T06:10:40.604Z,48.60
2022-12-01T06:13:06.805Z,47.35
2022-12-01T06:15:32.996Z,49.17
2022-12-01T06:17:59.984Z,48.58
2022-12-01T06:20:26.466Z,48.95
2022-12-01T06:22:52.624Z,49.85
2022-12-01T06:25:18.736Z,47.05
2022-12-01T06:27:44.861Z,48.95
2022-12-01T06:30:11.240Z,43.85
2022-12-01T06:32:38.362Z,48.55
2022-12-01T06:35:04.758Z,49.60
2022-12-01T06:37:30.932Z,47.50
2022-12-01T06:39:57.090Z,48.72
2022-12-01T06:42:23.262Z,50.72
2022-12-01T06:44:49.444Z,47.00
2022-12-01T06:47:16.025Z,50.17
2022-12-01T06:49:42.235Z,51.03
2022-12-01T06:52:08.368Z,47.78
2022-12-01T06:54:34.653Z,48.50
2022-12-01T06:57:00.775Z,50.15
2022-12-01T06:59:27.242Z,47.40
2022-12-01T07:01:53.797Z,49.00
2022-12-01T07:04:20.449Z,49.15
2022-12-01T07:06:46.580Z,46.88
2022-12-01T07:09:12.728Z,47.20
2022-12-01T07:11:38.901Z,46.85
2022-12-01T07:14:05.046Z,46.72
2022-12-01T07:16:31.184Z,46.60
2022-12-01T07:18:57.428Z,49.28
2022-12-01T07:21:24.917Z,48.30
2022-12-01T07:23:51.112Z,48.22
2022-12-01T07:26:18.389Z,45.78
2022-12-01T07:28:44.990Z,46.63
2022-12-01T07:31:12.596Z,44.13
2022-12-01T07:33:39.136Z,45.78
2022-12-01T07:36:06.348Z,43.97
2022-12-01T07:38:34.511Z,45.10
2022-12-01T07:41:08.669Z,43.38
2022-12-01T07:43:35.145Z,44.67
2022-12-01T07:46:06.444Z,45.25
2022-12-01T07:48:32.667Z,42.00
2022-12-01T07:50:58.792Z,44.63
2022-12-01T07:53:24.937Z,45.65
2022-12-01T07:55:51.189Z,43.00
2022-12-01T07:58:17.823Z,42.00
2022-12-01T08:00:43.978Z,41.15
2022-12-01T08:03:10.209Z,40.33
2022-12-01T08:05:36.509Z,41.95
2022-12-01T08:08:03.439Z,38.42
2022-12-01T08:10:29.586Z,39.83
2022-12-01T08:12:55.723Z,39.38
2022-12-01T08:15:21.996Z,37.40
2022-12-01T08:17:48.210Z,39.25
2022-12-01T08:20:18.431Z,37.78
2022-12-01T08:22:48.631Z,37.42
2022-12-01T08:25:14.740Z,41.47
2022-12-01T08:27:40.863Z,38.78
2022-12-01T08:30:07.704Z,40.50
2022-12-01T08:32:33.825Z,37.40
2022-12-01T08:34:59.930Z,38.78
2022-12-01T08:37:26.048Z,36.83
2022-12-01T08:39:52.202Z,37.70
2022-12-01T08:42:18.383Z,37.67
2022-12-01T08:44:44.550Z,38.05
2022-12-01T08:47:14.332Z,37.47
2022-12-01T08:49:43.305Z,33.42
2022-12-01T08:52:09.420Z,36.63
2022-12-01T08:54:35.533Z,37.10
2022-12-01T08:57:01.661Z,34.10
2022-12-01T08:59:27.871Z,36.42
2022-12-01T09:01:54.074Z,36.22
2022-12-01T09:04:22.134Z,36.72
2022-12-01T09:06:49.942Z,34.72
2022-12-01T09:09:21.833Z,36.17
2022-12-01T09:11:48.310Z,34.10
2022-12-01T09:14:16.713Z,34.67
2022-12-01T09:16:44.605Z,37.15
2022-12-01T09:19:13.061Z,37.40
2022-12-01T09:21:39.842Z,36.75
2022-12-01T09:24:07.060Z,35.22
2022-12-01T09:26:34.037Z,35.35
2022-12-01T09:29:03.190Z,34.63
2022-12-01T09:31:29.601Z,33.58
2022-12-01T09:34:06.424Z,35.47
2022-12-01T09:36:33.928Z,36.05
2022-12-01T09:39:00.749Z,34.50
2022-12-01T09:41:37.160Z,35.28
2022-12-01T09:44:21.989Z,33.35
2022-12-01T09:47:07.295Z,33.75
2022-12-01T09:49:44.371Z,34.53
2022-12-01T09:52:16.821Z,33.75
2022-12-01T09:54:42.988Z,34.83
2022-12-01T09:57:34.298Z,33.92
2022-12-01T10:00:04.585Z,35.22
2022-12-01T10:02:49.057Z,36.20
2022-12-01T10:05:22.292Z,34.42
2022-12-01T10:08:02.250Z,33.85
2022-12-01T10:10:37.819Z,32.97
2022-12-01T10:15:59.161Z,33.17
2022-12-01T10:18:44.323Z,31.80
2022-12-01T10:21:33.626Z,32.88
2022-12-01T10:24:23.170Z,32.75
2022-12-01T10:27:12.600Z,34.20
2022-12-01T10:29:49.785Z,34.42
2022-12-01T10:32:23.385Z,31.02
2022-12-01T10:34:49.675Z,31.50
2022-12-01T10:37:23.622Z,33.10
2022-12-01T10:39:52.637Z,32.90
2022-12-01T10:42:25.041Z,30.05
2022-12-01T10:44:54.112Z,30.83
2022-12-01T10:47:28.178Z,31.77
2022-12-01T10:49:54.582Z,31.55
2022-12-01T10:52:41.366Z,32.75
2022-12-01T10:55:26.425Z,30.73
2022-12-01T10:57:55.535Z,30.90
2022-12-01T11:00:58.007Z,33.78
2022-12-01T11:03:23.014Z,31.23
2022-12-01T11:05:58.318Z,32.03
2022-12-01T11:08:33.787Z,33.15
2022-12-01T11:16:02.915Z,30.90
2022-12-01T11:18:34.181Z,32.22
2022-12-01T11:21:15.144Z,31.13
2022-12-01T11:23:49.480Z,30.85
2022-12-01T11:26:35.920Z,31.70
2022-12-01T11:29:23.377Z,33.35
2022-12-01T11:31:52.899Z,30.77
2022-12-01T11:34:22.308Z,31.88
2022-12-01T11:37:03.172Z,33.72
2022-12-01T11:39:42.367Z,31.25
2022-12-01T11:42:14.415Z,31.35
2022-12-01T11:44:51.654Z,33.30
2022-12-01T11:47:23.665Z,34.10
2022-12-01T11:49:59.063Z,34.25
2022-12-01T11:52:36.502Z,30.42
2022-12-01T11:55:11.813Z,30.35
2022-12-01T12:00:18.591Z,28.88
2022-12-01T12:02:59.260Z,30.20
2022-12-01T12:05:42.495Z,29.77
2022-12-01T12:08:33.680Z,28.17
2022-12-01T12:11:20.820Z,28.85
2022-12-01T12:14:12.286Z,29.42
2022-12-01T12:17:07.870Z,30.20
2022-12-01T12:20:10.973Z,28.77
2022-12-01T12:22:56.172Z,28.17
2022-12-01T12:25:34.522Z,28.13
2022-12-01T12:28:29.833Z,26.77
2022-12-01T12:31:04.972Z,29.90
2022-12-01T12:33:53.779Z,27.77
2022-12-01T12:36:41.374Z,29.02
2022-12-01T12:39:19.405Z,30.15
2022-12-01T12:41:48.554Z,28.90
2022-12-01T12:44:24.347Z,31.48
2022-12-01T12:47:04.532Z,30.77
2022-12-01T12:49:49.499Z,28.10
2022-12-01T12:52:25.373Z,29.67
2022-12-01T12:55:02.429Z,27.92
2022-12-01T12:57:34.949Z,27.13
2022-12-01T13:00:13.626Z,28.95
2022-12-01T13:02:46.362Z,29.27
2022-12-01T13:05:23.309Z,28.35
2022-12-01T13:08:11.400Z,28.85
2022-12-01T13:10:46.533Z,28.67
2022-12-01T13:13:24.548Z,30.25
2022-12-01T13:15:52.701Z,28.58
2022-12-01T13:18:35.327Z,29.42
2022-12-01T13:21:04.019Z,30.73
2022-12-01T13:23:31.439Z,28.65
2022-12-01T13:26:00.768Z,29.80
2022-12-01T13:28:34.428Z,29.60
2022-12-01T13:31:02.473Z,29.15
2022-12-01T13:33:29.056Z,33.42
2022-12-01T13:36:22.753Z,32.33
2022-12-01T13:38:42.620Z,30.13
2022-12-01T13:41:17.860Z,31.20
2022-12-01T13:44:04.655Z,29.95
2022-12-01T13:46:53.120Z,29.30
2022-12-01T13:49:43.821Z,33.10
2022-12-01T13:52:21.946Z,32.15
2022-12-01T13:55:01.999Z,32.45
2022-12-01T13:57:31.665Z,31.17
2022-12-01T14:00:00.828Z,31.33
2022-12-01T14:02:32.645Z,31.33
2022-12-01T14:05:36.763Z,32.47
2022-12-01T14:08:22.635Z,32.50
2022-12-01T14:10:57.823Z,30.17
2022-12-01T14:13:25.147Z,29.97
2022-12-01T14:15:57.981Z,30.77
2022-12-01T14:18:29.457Z,27.48
2022-12-01T14:20:56.075Z,31.38
2022-12-01T14:23:31.555Z,33.35
2022-12-01T14:29:03.413Z,29.52
2022-12-01T14:31:32.427Z,31.13
2022-12-01T14:34:13.209Z,32.47
2022-12-01T14:36:49.357Z,29.67
2022-12-01T14:39:26.670Z,30.00
2022-12-01T14:42:00.370Z,30.20
2022-12-01T14:44:35.526Z,29.90
2022-12-01T14:47:05.367Z,30.90
2022-12-01T14:50:00.370Z,29.52
2022-12-01T14:52:37.364Z,29.35
2022-12-01T14:55:07.282Z,27.80
2022-12-01T14:58:01.623Z,32.17
2022-12-01T15:00:28.118Z,29.77
2022-12-01T15:02:57.217Z,31.45
2022-12-01T15:05:29.925Z,29.17
2022-12-01T15:08:18.530Z,27.98
2022-12-01T15:10:54.485Z,31.65
2022-12-01T15:15:55.427Z,28.58
2022-12-01T15:18:29.161Z,29.52
2022-12-01T15:21:19.650Z,29.63
2022-12-01T15:24:22.653Z,30.95
2022-12-01T15:27:02.172Z,30.05
2022-12-01T15:29:45.602Z,30.52
2022-12-01T15:32:16.302Z,30.85
2022-12-01T15:34:46.007Z,31.92
2022-12-01T15:37:16.144Z,35.33
2022-12-01T15:40:00.839Z,30.27
2022-12-01T15:42:39.469Z,28.40
2022-12-01T15:45:14.416Z,28.67
2022-12-01T15:47:46.525Z,29.10
2022-12-01T15:50:41.277Z,28.23
2022-12-01T15:53:27.630Z,28.55
2022-12-01T15:55:59.124Z,28.27
2022-12-01T15:58:33.056Z,27.45
2022-12-01T16:01:16.352Z,31.08
2022-12-01T16:03:56.112Z,33.75
2022-12-01T16:06:29.377Z,31.52
2022-12-01T16:09:22.925Z,30.38
2022-12-01T16:12:16.879Z,26.70
2022-12-01T16:15:03.243Z,28.58
2022-12-01T16:17:42.601Z,28.75
2022-12-01T16:20:32.383Z,29.10
2022-12-01T16:23:03.043Z,28.77
2022-12-01T16:25:38.208Z,29.60
2022-12-01T16:28:06.584Z,29.70
2022-12-01T16:30:38.875Z,27.77
2022-12-01T16:33:15.281Z,28.85
2022-12-01T16:35:41.595Z,28.65
2022-12-01T16:38:16.201Z,29.20
2022-12-01T16:40:43.259Z,30.30
2022-12-01T16:43:13.697Z,28.15
2022-12-01T16:45:39.927Z,34.05
2022-12-01T16:48:09.319Z,26.75
2022-12-01T16:50:35.908Z,29.17
2022-12-01T16:53:02.034Z,28.27
2022-12-01T16:55:48.076Z,29.33
2022-12-01T16:58:14.522Z,27.60
2022-12-01T17:00:41.175Z,28.40
2022-12-01T17:03:08.125Z,28.80
2022-12-01T17:05:34.473Z,27.27
2022-12-01T17:08:00.609Z,28.58
2022-12-01T17:10:26.802Z,29.02
2022-12-01T17:12:52.956Z,28.38
2022-12-01T17:15:19.086Z,27.52
2022-12-01T17:17:45.425Z,27.40
2022-12-01T17:20:11.768Z,27.73
2022-12-01T17:22:38.233Z,27.00
2022-12-01T17:25:05.320Z,26.13
2022-12-01T17:27:32.578Z,25.73
2022-12-01T17:30:01.000Z,25.83
2022-12-01T17:32:27.753Z,28.17
2022-12-01T17:34:53.971Z,27.45
2022-12-01T17:37:21.315Z,27.45
2022-12-01T17:39:47.921Z,26.80
2022-12-01T17:42:14.048Z,27.27
2022-12-01T17:44:40.162Z,29.30
2022-12-01T17:47:06.401Z,27.27
2022-12-01T17:49:32.988Z,25.83
2022-12-01T17:51:59.157Z,27.05
2022-12-01T17:54:25.285Z,37.47
2022-12-01T17:56:51.418Z,26.42
2022-12-01T17:59:17.542Z,27.42
2022-12-01T18:01:43.804Z,27.42
2022-12-01T18:04:09.968Z,26.77
2022-12-01T18:06:36.076Z,26.88
2022-12-01T18:09:02.388Z,27.77
2022-12-01T18:11:28.650Z,27.15
2022-12-01T18:13:54.787Z,26.27
2022-12-01T18:16:25.366Z,26.63
2022-12-01T18:18:52.121Z,27.10
2022-12-01T18:21:21.249Z,27.92
2022-12-01T18:23:55.774Z,26.75
2022-12-01T18:26:22.373Z,29.57
2022-12-01T18:28:54.886Z,30.40
2022-12-01T18:31:21.354Z,26.52
2022-12-01T18:33:47.578Z,28.58
2022-12-01T18:36:22.996Z,28.55
2022-12-01T18:41:16.401Z,26.52
2022-12-01T18:43:42.809Z,26.20
2022-12-01T18:46:09.123Z,25.90
2022-12-01T18:48:35.637Z,28.45
2022-12-01T18:51:03.952Z,28.63
2022-12-01T18:53:30.340Z,29.52
2022-12-01T18:56:05.553Z,28.05
2022-12-01T18:58:32.675Z,28.38
2022-12-01T19:01:00.275Z,27.67
2022-12-01T19:03:29.569Z,27.23
2022-12-01T19:05:55.696Z,25.52
2022-12-01T19:08:22.010Z,28.23
2022-12-01T19:10:59.461Z,28.08
2022-12-01T19:13:25.798Z,28.52
2022-12-01T19:15:52.005Z,28.23
2022-12-01T19:18:18.346Z,27.90
2022-12-01T19:20:44.522Z,28.45
2022-12-01T19:23:11.088Z,28.23
2022-12-01T19:25:37.404Z,28.38
2022-12-01T19:28:03.640Z,27.48
2022-12-01T19:30:29.912Z,26.85
2022-12-01T19:32:56.191Z,28.90
2022-12-01T19:35:22.437Z,26.35
2022-12-01T19:37:48.751Z,27.13
2022-12-01T19:40:14.971Z,26.95
2022-12-01T19:42:41.930Z,25.92
2022-12-01T19:45:08.969Z,27.27
2022-12-01T19:47:35.983Z,27.45
2022-12-01T19:50:02.372Z,26.30
2022-12-01T19:52:31.314Z,26.05
2022-12-01T19:54:57.525Z,25.98
2022-12-01T19:57:23.733Z,27.15
2022-12-01T19:59:49.906Z,27.50
2022-12-01T20:02:16.227Z,25.33
2022-12-01T20:04:42.386Z,26.23
2022-12-01T20:07:08.500Z,27.02
2022-12-01T20:09:34.701Z,27.80
2022-12-01T20:12:00.885Z,26.02
2022-12-01T20:14:27.040Z,25.92
2022-12-01T20:16:55.769Z,27.25
2022-12-01T20:19:21.931Z,25.27
2022-12-01T20:21:48.686Z,28.33
2022-12-01T20:24:18.650Z,26.50
2022-12-01T20:26:47.821Z,27.02
2022-12-01T20:29:17.680Z,27.02
2022-12-01T20:31:43.857Z,26.85
2022-12-01T20:34:14.320Z,26.25
2022-12-01T20:36:40.826Z,27.38
2022-12-01T20:39:08.138Z,25.00
2022-12-01T20:41:34.832Z,27.02
2022-12-01T20:44:07.007Z,25.40
2022-12-01T20:46:33.911Z,28.13
2022-12-01T20:49:00.075Z,25.88
2022-12-01T20:51:26.218Z,25.90
2022-12-01T20:54:19.584Z,26.88
2022-12-01T20:56:38.581Z,26.38
2022-12-01T20:59:06.315Z,26.95
2022-12-01T21:01:32.738Z,26.33
2022-12-01T21:03:58.921Z,26.83
2022-12-01T21:06:25.116Z,26.27
2022-12-01T21:08:51.494Z,26.42
2022-12-01T21:11:51.657Z,26.75
2022-12-01T21:14:30.080Z,26.48
2022-12-01T21:17:02.536Z,26.98
2022-12-01T21:19:43.944Z,25.80
2022-12-01T21:22:13.718Z,26.77
2022-12-01T21:24:43.841Z,26.35
2022-12-01T21:27:15.308Z,25.65
2022-12-01T21:29:47.333Z,26.52
2022-12-01T21:32:14.620Z,27.52
2022-12-01T21:34:41.572Z,25.58
2022-12-01T21:37:25.340Z,26.27
2022-12-01T21:39:53.234Z,26.58
2022-12-01T21:42:27.529Z,27.92
2022-12-01T21:44:55.899Z,29.05
2022-12-01T21:47:26.606Z,29.30
2022-12-01T21:49:56.153Z,27.63
2022-12-01T21:52:30.325Z,26.45
2022-12-01T21:55:02.757Z,26.38
2022-12-01T21:57:43.324Z,26.88
2022-12-01T22:00:30.977Z,27.92
2022-12-01T22:03:09.035Z,25.17
2022-12-01T22:05:38.078Z,27.02
2022-12-01T22:08:24.107Z,28.00
2022-12-01T22:11:08.553Z,26.85
2022-12-01T22:13:37.542Z,27.23
2022-12-01T22:16:03.882Z,27.45
2022-12-01T22:18:36.677Z,28.38
2022-12-01T22:21:22.742Z,27.05
2022-12-01T22:24:06.164Z,28.85
2022-12-01T22:26:32.939Z,25.88
2022-12-01T22:28:59.983Z,28.05
2022-12-01T22:31:27.922Z,27.95
2022-12-01T22:34:03.046Z,26.85
2022-12-01T22:38:57.999Z,27.05
2022-12-01T22:41:24.129Z,28.92
2022-12-01T22:43:57.673Z,26.70
2022-12-01T22:46:31.128Z,25.55
2022-12-01T22:48:59.813Z,28.73
2022-12-01T22:51:30.806Z,27.50
2022-12-01T22:54:16.830Z,25.67
2022-12-01T22:56:43.922Z,26.38
2022-12-01T22:59:16.802Z,28.27
2022-12-01T23:01:55.646Z,27.77
2022-12-01T23:04:31.270Z,28.42
2022-12-01T23:07:34.526Z,27.73
2022-12-01T23:10:20.279Z,28.60
2022-12-01T23:12:48.862Z,26.83
2022-12-01T23:15:30.752Z,27.50
2022-12-01T23:17:59.592Z,27.70
2022-12-01T23:20:32.159Z,28.38
2022-12-01T23:23:01.094Z,27.08
2022-12-01T23:25:27.654Z,29.17
2022-12-01T23:27:55.161Z,26.50
2022-12-01T23:30:22.389Z,28.13
2022-12-01T23:32:57.611Z,30.20
2022-12-01T23:35:23.748Z,28.73
2022-12-01T23:37:49.920Z,26.55
2022-12-01T23:40:26.363Z,27.35
2022-12-01T23:42:52.596Z,26.60
2022-12-01T23:45:24.009Z,28.77
2022-12-01T23:47:52.946Z,29.25
2022-12-01T23:50:22.479Z,27.08
2022-12-01T23:52:48.948Z,27.50
2022-12-01T23:55:21.904Z,28.50
2022-12-01T23:57:48.918Z,27.05
